sensor_id;sensor_type;location;lat;lon;timestamp;temperature;humidity
11142;DHT22;5625;50.122;19.864;2023-10-13T00:01:05;15.60;99.90
11142;DHT22;5625;50.122;19.864;2023-10-13T00:03:36;15.60;99.90
11142;DHT22;5625;50.122;19.864;2023-10-13T00:06:04;15.60;99.90
11142;DHT22;5625;50.122;19.864;2023-10-13T00:08:33;15.60;99.90
11142;DHT22;5625;50.122;19.864;2023-10-13T00:11:03;15.60;99.90
11142;DHT22;5625;50.122;19.864;2023-10-13T00:13:32;15.60;99.90
11142;DHT22;5625;50.122;19.864;2023-10-13T00:16:10;15.60;99.90
11142;DHT22;5625;50.122;19.864;2023-10-13T00:18:44;15.60;99.90
11142;DHT22;5625;50.122;19.864;2023-10-13T00:21:13;15.50;99.90
11142;DHT22;5625;50.122;19.864;2023-10-13T00:23:43;15.60;99.90
11142;DHT22;5625;50.122;19.864;2023-10-13T00:26:19;15.50;99.90
11142;DHT22;5625;50.122;19.864;2023-10-13T00:28:51;15.50;99.90
11142;DHT22;5625;50.122;19.864;2023-10-13T00:31:27;15.50;99.90
11142;DHT22;5625;50.122;19.864;2023-10-13T00:34:00;15.50;99.90
11142;DHT22;5625;50.122;19.864;2023-10-13T00:36:36;15.50;99.90
11142;DHT22;5625;50.122;19.864;2023-10-13T00:39:13;15.50;99.90
11142;DHT22;5625;50.122;19.864;2023-10-13T00:41:43;15.50;99.90
11142;DHT22;5625;50.122;19.864;2023-10-13T00:44:24;15.50;99.90
11142;DHT22;5625;50.122;19.864;2023-10-13T00:46:56;15.50;99.90
11142;DHT22;5625;50.122;19.864;2023-10-13T00:49:25;15.50;99.90
11142;DHT22;5625;50.122;19.864;2023-10-13T00:51:52;15.40;99.90
11142;DHT22;5625;50.122;19.864;2023-10-13T00:54:23;15.40;99.90
11142;DHT22;5625;50.122;19.864;2023-10-13T00:56:55;15.50;99.90
11142;DHT22;5625;50.122;19.864;2023-10-13T00:59:34;15.40;99.90
11142;DHT22;5625;50.122;19.864;2023-10-13T01:02:04;15.40;99.90
11142;DHT22;5625;50.122;19.864;2023-10-13T01:04:57;15.40;99.90
11142;DHT22;5625;50.122;19.864;2023-10-13T01:07:24;15.40;99.90
11142;DHT22;5625;50.122;19.864;2023-10-13T01:09:53;15.40;99.90
11142;DHT22;5625;50.122;19.864;2023-10-13T01:12:20;15.40;99.90
11142;DHT22;5625;50.122;19.864;2023-10-13T01:14:50;15.30;99.90
11142;DHT22;5625;50.122;19.864;2023-10-13T01:17:19;15.30;99.90
11142;DHT22;5625;50.122;19.864;2023-10-13T01:19:50;15.20;99.90
11142;DHT22;5625;50.122;19.864;2023-10-13T01:22:25;15.30;99.90
11142;DHT22;5625;50.122;19.864;2023-10-13T01:24:56;15.30;99.90
11142;DHT22;5625;50.122;19.864;2023-10-13T01:27:36;15.20;99.90
11142;DHT22;5625;50.122;19.864;2023-10-13T01:30:06;15.20;99.90
11142;DHT22;5625;50.122;19.864;2023-10-13T01:32:37;15.20;99.90
11142;DHT22;5625;50.122;19.864;2023-10-13T01:35:07;15.20;99.90
11142;DHT22;5625;50.122;19.864;2023-10-13T01:37:35;15.10;99.90
11142;DHT22;5625;50.122;19.864;2023-10-13T01:40:05;15.10;99.90
11142;DHT22;5625;50.122;19.864;2023-10-13T01:42:33;15.10;99.90
11142;DHT22;5625;50.122;19.864;2023-10-13T01:45:04;15.10;99.90
11142;DHT22;5625;50.122;19.864;2023-10-13T01:47:32;15.10;99.90
11142;DHT22;5625;50.122;19.864;2023-10-13T01:50:01;15.10;99.90
11142;DHT22;5625;50.122;19.864;2023-10-13T01:52:39;15.00;99.90
11142;DHT22;5625;50.122;19.864;2023-10-13T01:55:10;15.10;99.90
11142;DHT22;5625;50.122;19.864;2023-10-13T01:57:38;15.00;99.90
11142;DHT22;5625;50.122;19.864;2023-10-13T02:00:09;15.00;99.90
11142;DHT22;5625;50.122;19.864;2023-10-13T02:02:46;15.00;99.90
11142;DHT22;5625;50.122;19.864;2023-10-13T02:05:17;15.00;99.90
11142;DHT22;5625;50.122;19.864;2023-10-13T02:07:45;14.90;99.90
11142;DHT22;5625;50.122;19.864;2023-10-13T02:10:14;14.90;99.90
11142;DHT22;5625;50.122;19.864;2023-10-13T02:12:45;14.90;99.90
11142;DHT22;5625;50.122;19.864;2023-10-13T02:15:13;14.90;99.90
11142;DHT22;5625;50.122;19.864;2023-10-13T02:17:49;14.90;99.90
11142;DHT22;5625;50.122;19.864;2023-10-13T02:20:19;14.90;99.90
11142;DHT22;5625;50.122;19.864;2023-10-13T02:22:50;14.90;99.90
11142;DHT22;5625;50.122;19.864;2023-10-13T02:25:19;14.90;99.90
11142;DHT22;5625;50.122;19.864;2023-10-13T02:28:03;14.90;99.90
11142;DHT22;5625;50.122;19.864;2023-10-13T02:30:37;14.90;99.90
11142;DHT22;5625;50.122;19.864;2023-10-13T02:33:05;14.90;99.90
11142;DHT22;5625;50.122;19.864;2023-10-13T02:35:33;14.80;99.90
11142;DHT22;5625;50.122;19.864;2023-10-13T02:38:03;14.80;99.90
11142;DHT22;5625;50.122;19.864;2023-10-13T02:40:39;14.80;99.90
11142;DHT22;5625;50.122;19.864;2023-10-13T02:43:07;14.80;99.90
11142;DHT22;5625;50.122;19.864;2023-10-13T02:45:34;14.80;99.90
11142;DHT22;5625;50.122;19.864;2023-10-13T02:48:04;14.70;99.90
11142;DHT22;5625;50.122;19.864;2023-10-13T02:50:40;14.80;99.90
11142;DHT22;5625;50.122;19.864;2023-10-13T02:53:12;14.70;99.90
11142;DHT22;5625;50.122;19.864;2023-10-13T02:55:50;14.70;99.90
11142;DHT22;5625;50.122;19.864;2023-10-13T02:58:19;14.60;99.90
11142;DHT22;5625;50.122;19.864;2023-10-13T03:00:48;14.60;99.90
11142;DHT22;5625;50.122;19.864;2023-10-13T03:03:15;14.60;99.90
11142;DHT22;5625;50.122;19.864;2023-10-13T03:05:46;14.60;99.90
11142;DHT22;5625;50.122;19.864;2023-10-13T03:08:13;14.60;99.90
11142;DHT22;5625;50.122;19.864;2023-10-13T03:10:53;14.60;99.90
11142;DHT22;5625;50.122;19.864;2023-10-13T03:13:21;14.50;99.90
11142;DHT22;5625;50.122;19.864;2023-10-13T03:15:50;14.60;99.90
11142;DHT22;5625;50.122;19.864;2023-10-13T03:18:17;14.50;99.90
11142;DHT22;5625;50.122;19.864;2023-10-13T03:20:45;14.50;99.90
11142;DHT22;5625;50.122;19.864;2023-10-13T03:23:17;14.50;99.90
11142;DHT22;5625;50.122;19.864;2023-10-13T03:25:45;14.40;99.90
11142;DHT22;5625;50.122;19.864;2023-10-13T03:28:18;14.40;99.90
11142;DHT22;5625;50.122;19.864;2023-10-13T03:30:50;14.40;99.90
11142;DHT22;5625;50.122;19.864;2023-10-13T03:33:20;14.40;99.90
11142;DHT22;5625;50.122;19.864;2023-10-13T03:35:53;14.40;99.90
11142;DHT22;5625;50.122;19.864;2023-10-13T03:38:26;14.30;99.90
11142;DHT22;5625;50.122;19.864;2023-10-13T03:40:55;14.30;99.90
11142;DHT22;5625;50.122;19.864;2023-10-13T03:43:36;14.30;99.90
11142;DHT22;5625;50.122;19.864;2023-10-13T03:46:12;14.30;99.90
11142;DHT22;5625;50.122;19.864;2023-10-13T03:48:41;14.30;99.90
11142;DHT22;5625;50.122;19.864;2023-10-13T03:51:21;14.30;99.90
11142;DHT22;5625;50.122;19.864;2023-10-13T03:53:57;14.30;99.90
11142;DHT22;5625;50.122;19.864;2023-10-13T03:56:27;14.30;99.90
11142;DHT22;5625;50.122;19.864;2023-10-13T03:59:08;14.30;99.90
11142;DHT22;5625;50.122;19.864;2023-10-13T04:01:46;14.20;99.90
11142;DHT22;5625;50.122;19.864;2023-10-13T04:04:25;14.30;99.90
11142;DHT22;5625;50.122;19.864;2023-10-13T04:07:09;14.30;99.90
11142;DHT22;5625;50.122;19.864;2023-10-13T04:09:55;14.30;99.90
11142;DHT22;5625;50.122;19.864;2023-10-13T04:13:07;14.30;99.90
11142;DHT22;5625;50.122;19.864;2023-10-13T04:15:53;14.30;99.90
11142;DHT22;5625;50.122;19.864;2023-10-13T04:18:42;14.30;99.90
11142;DHT22;5625;50.122;19.864;2023-10-13T04:21:35;14.30;99.90
11142;DHT22;5625;50.122;19.864;2023-10-13T04:24:22;14.30;99.90
11142;DHT22;5625;50.122;19.864;2023-10-13T04:26:52;14.30;99.90
11142;DHT22;5625;50.122;19.864;2023-10-13T04:29:38;14.30;99.90
11142;DHT22;5625;50.122;19.864;2023-10-13T04:32:24;14.30;99.90
11142;DHT22;5625;50.122;19.864;2023-10-13T04:35:01;14.30;99.90
11142;DHT22;5625;50.122;19.864;2023-10-13T04:37:37;14.30;99.90
11142;DHT22;5625;50.122;19.864;2023-10-13T04:40:18;14.30;99.90
11142;DHT22;5625;50.122;19.864;2023-10-13T04:42:47;14.30;99.90
11142;DHT22;5625;50.122;19.864;2023-10-13T04:45:20;14.30;99.90
11142;DHT22;5625;50.122;19.864;2023-10-13T04:48:15;14.30;99.90
11142;DHT22;5625;50.122;19.864;2023-10-13T04:51:00;14.30;99.90
11142;DHT22;5625;50.122;19.864;2023-10-13T04:53:46;14.30;99.90
11142;DHT22;5625;50.122;19.864;2023-10-13T04:56:38;14.30;99.90
11142;DHT22;5625;50.122;19.864;2023-10-13T04:59:26;14.30;99.90
11142;DHT22;5625;50.122;19.864;2023-10-13T05:02:04;14.30;99.90
11142;DHT22;5625;50.122;19.864;2023-10-13T05:05:12;14.30;99.90
11142;DHT22;5625;50.122;19.864;2023-10-13T05:08:12;14.30;99.90
11142;DHT22;5625;50.122;19.864;2023-10-13T05:11:04;14.30;99.90
11142;DHT22;5625;50.122;19.864;2023-10-13T05:13:50;14.30;99.90
11142;DHT22;5625;50.122;19.864;2023-10-13T05:16:35;14.40;99.90
11142;DHT22;5625;50.122;19.864;2023-10-13T05:19:21;14.40;99.90
11142;DHT22;5625;50.122;19.864;2023-10-13T05:22:08;14.40;99.90
11142;DHT22;5625;50.122;19.864;2023-10-13T05:24:54;14.40;99.90
11142;DHT22;5625;50.122;19.864;2023-10-13T05:27:40;14.40;99.90
11142;DHT22;5625;50.122;19.864;2023-10-13T05:30:59;14.50;99.90
11142;DHT22;5625;50.122;19.864;2023-10-13T05:33:44;14.50;99.90
11142;DHT22;5625;50.122;19.864;2023-10-13T05:36:30;14.50;99.90
11142;DHT22;5625;50.122;19.864;2023-10-13T05:39:17;14.50;99.90
11142;DHT22;5625;50.122;19.864;2023-10-13T05:42:02;14.50;99.90
11142;DHT22;5625;50.122;19.864;2023-10-13T05:44:49;14.50;99.90
11142;DHT22;5625;50.122;19.864;2023-10-13T05:47:44;14.50;99.90
11142;DHT22;5625;50.122;19.864;2023-10-13T05:50:17;14.60;99.90
11142;DHT22;5625;50.122;19.864;2023-10-13T05:53:16;14.50;99.90
11142;DHT22;5625;50.122;19.864;2023-10-13T05:56:04;14.60;99.90
11142;DHT22;5625;50.122;19.864;2023-10-13T05:58:49;14.60;99.90
11142;DHT22;5625;50.122;19.864;2023-10-13T06:01:35;14.60;99.90
11142;DHT22;5625;50.122;19.864;2023-10-13T06:04:21;14.60;99.90
11142;DHT22;5625;50.122;19.864;2023-10-13T06:07:16;14.70;99.90
11142;DHT22;5625;50.122;19.864;2023-10-13T06:10:10;14.60;99.90
11142;DHT22;5625;50.122;19.864;2023-10-13T06:12:57;14.60;99.90
11142;DHT22;5625;50.122;19.864;2023-10-13T06:15:43;14.70;99.90
11142;DHT22;5625;50.122;19.864;2023-10-13T06:18:29;14.70;99.90
11142;DHT22;5625;50.122;19.864;2023-10-13T06:21:14;14.70;99.90
11142;DHT22;5625;50.122;19.864;2023-10-13T06:24:00;14.80;99.90
11142;DHT22;5625;50.122;19.864;2023-10-13T06:27:00;14.80;99.90
11142;DHT22;5625;50.122;19.864;2023-10-13T06:29:47;14.80;99.90
11142;DHT22;5625;50.122;19.864;2023-10-13T06:32:15;14.80;99.90
11142;DHT22;5625;50.122;19.864;2023-10-13T06:34:44;14.80;99.90
11142;DHT22;5625;50.122;19.864;2023-10-13T06:37:12;14.80;99.90
11142;DHT22;5625;50.122;19.864;2023-10-13T06:39:52;14.80;99.90
11142;DHT22;5625;50.122;19.864;2023-10-13T06:42:23;14.90;99.90
11142;DHT22;5625;50.122;19.864;2023-10-13T06:44:55;14.90;99.90
11142;DHT22;5625;50.122;19.864;2023-10-13T06:47:25;14.90;99.90
11142;DHT22;5625;50.122;19.864;2023-10-13T06:49:55;14.90;99.90
11142;DHT22;5625;50.122;19.864;2023-10-13T06:52:23;14.90;99.90
11142;DHT22;5625;50.122;19.864;2023-10-13T06:54:56;14.90;99.90
11142;DHT22;5625;50.122;19.864;2023-10-13T06:57:24;14.90;99.90
11142;DHT22;5625;50.122;19.864;2023-10-13T06:59:55;14.90;99.90
11142;DHT22;5625;50.122;19.864;2023-10-13T07:02:23;14.90;99.90
11142;DHT22;5625;50.122;19.864;2023-10-13T07:05:00;14.90;99.90
11142;DHT22;5625;50.122;19.864;2023-10-13T07:07:35;14.90;99.90
11142;DHT22;5625;50.122;19.864;2023-10-13T07:10:08;14.90;99.90
11142;DHT22;5625;50.122;19.864;2023-10-13T07:12:36;14.80;99.90
11142;DHT22;5625;50.122;19.864;2023-10-13T07:15:11;14.90;99.90
11142;DHT22;5625;50.122;19.864;2023-10-13T07:17:46;14.90;99.90
11142;DHT22;5625;50.122;19.864;2023-10-13T07:20:22;15.00;99.90
11142;DHT22;5625;50.122;19.864;2023-10-13T07:23:00;15.00;99.90
11142;DHT22;5625;50.122;19.864;2023-10-13T07:25:31;15.00;99.90
11142;DHT22;5625;50.122;19.864;2023-10-13T07:28:02;15.00;99.90
11142;DHT22;5625;50.122;19.864;2023-10-13T07:30:33;15.10;99.90
11142;DHT22;5625;50.122;19.864;2023-10-13T07:33:06;15.20;99.90
11142;DHT22;5625;50.122;19.864;2023-10-13T07:35:37;15.20;99.90
11142;DHT22;5625;50.122;19.864;2023-10-13T07:38:05;15.30;99.90
11142;DHT22;5625;50.122;19.864;2023-10-13T07:40:35;15.30;99.90
11142;DHT22;5625;50.122;19.864;2023-10-13T07:43:17;15.40;99.90
11142;DHT22;5625;50.122;19.864;2023-10-13T07:45:52;15.40;99.90
11142;DHT22;5625;50.122;19.864;2023-10-13T07:48:25;15.50;99.90
11142;DHT22;5625;50.122;19.864;2023-10-13T07:50:59;15.70;99.90
11142;DHT22;5625;50.122;19.864;2023-10-13T07:53:29;15.80;99.90
11142;DHT22;5625;50.122;19.864;2023-10-13T07:56:01;15.90;99.90
11142;DHT22;5625;50.122;19.864;2023-10-13T07:58:32;16.00;99.90
11142;DHT22;5625;50.122;19.864;2023-10-13T08:01:02;16.20;99.90
11142;DHT22;5625;50.122;19.864;2023-10-13T08:03:44;16.50;99.90
11142;DHT22;5625;50.122;19.864;2023-10-13T08:06:14;17.00;99.90
11142;DHT22;5625;50.122;19.864;2023-10-13T08:08:53;17.50;99.90
11142;DHT22;5625;50.122;19.864;2023-10-13T08:11:24;18.10;99.90
11142;DHT22;5625;50.122;19.864;2023-10-13T08:14:00;18.60;99.90
11142;DHT22;5625;50.122;19.864;2023-10-13T08:16:58;18.60;99.90
11142;DHT22;5625;50.122;19.864;2023-10-13T08:19:28;18.50;99.90
11142;DHT22;5625;50.122;19.864;2023-10-13T08:22:09;18.60;99.90
11142;DHT22;5625;50.122;19.864;2023-10-13T08:24:52;18.90;99.90
11142;DHT22;5625;50.122;19.864;2023-10-13T08:27:31;19.30;99.90
11142;DHT22;5625;50.122;19.864;2023-10-13T08:30:03;19.40;99.90
11142;DHT22;5625;50.122;19.864;2023-10-13T08:32:51;19.50;99.90
11142;DHT22;5625;50.122;19.864;2023-10-13T08:35:24;20.00;12.60
11142;DHT22;5625;50.122;19.864;2023-10-13T08:38:04;20.30;1.00
11142;DHT22;5625;50.122;19.864;2023-10-13T08:40:58;20.30;1.00
11142;DHT22;5625;50.122;19.864;2023-10-13T08:43:45;20.20;1.00
11142;DHT22;5625;50.122;19.864;2023-10-13T08:46:19;20.10;1.00
11142;DHT22;5625;50.122;19.864;2023-10-13T08:48:58;19.90;1.00
11142;DHT22;5625;50.122;19.864;2023-10-13T08:51:36;19.80;22.20
11142;DHT22;5625;50.122;19.864;2023-10-13T08:54:21;19.70;67.80
11142;DHT22;5625;50.122;19.864;2023-10-13T08:57:02;19.60;99.90
11142;DHT22;5625;50.122;19.864;2023-10-13T08:59:59;19.60;99.90
11142;DHT22;5625;50.122;19.864;2023-10-13T09:02:41;19.50;99.90
11142;DHT22;5625;50.122;19.864;2023-10-13T09:05:50;19.60;99.90
11142;DHT22;5625;50.122;19.864;2023-10-13T09:08:33;19.80;99.90
11142;DHT22;5625;50.122;19.864;2023-10-13T09:11:12;19.90;99.90
11142;DHT22;5625;50.122;19.864;2023-10-13T09:13:40;20.10;99.90
11142;DHT22;5625;50.122;19.864;2023-10-13T09:16:15;20.20;99.90
11142;DHT22;5625;50.122;19.864;2023-10-13T09:19:06;20.30;99.90
11142;DHT22;5625;50.122;19.864;2023-10-13T09:21:40;20.50;99.90
11142;DHT22;5625;50.122;19.864;2023-10-13T09:24:21;20.50;99.90
11142;DHT22;5625;50.122;19.864;2023-10-13T09:26:54;20.50;99.90
11142;DHT22;5625;50.122;19.864;2023-10-13T09:29:22;20.70;99.90
11142;DHT22;5625;50.122;19.864;2023-10-13T09:32:00;21.00;1.00
11142;DHT22;5625;50.122;19.864;2023-10-13T09:34:30;21.20;99.90
11142;DHT22;5625;50.122;19.864;2023-10-13T09:37:03;21.40;99.90
11142;DHT22;5625;50.122;19.864;2023-10-13T09:39:32;21.70;99.90
11142;DHT22;5625;50.122;19.864;2023-10-13T09:42:12;22.30;68.80
11142;DHT22;5625;50.122;19.864;2023-10-13T09:44:45;22.90;99.90
11142;DHT22;5625;50.122;19.864;2023-10-13T09:47:21;22.70;1.00
11142;DHT22;5625;50.122;19.864;2023-10-13T09:50:00;22.60;99.90
11142;DHT22;5625;50.122;19.864;2023-10-13T09:52:35;23.00;99.90
11142;DHT22;5625;50.122;19.864;2023-10-13T09:55:21;23.40;99.90
11142;DHT22;5625;50.122;19.864;2023-10-13T09:57:58;23.80;99.90
11142;DHT22;5625;50.122;19.864;2023-10-13T10:00:35;24.10;30.60
11142;DHT22;5625;50.122;19.864;2023-10-13T10:03:31;24.40;1.00
11142;DHT22;5625;50.122;19.864;2023-10-13T10:06:07;24.60;99.90
11142;DHT22;5625;50.122;19.864;2023-10-13T10:08:44;24.90;99.90
11142;DHT22;5625;50.122;19.864;2023-10-13T10:14:35;24.90;99.90
11142;DHT22;5625;50.122;19.864;2023-10-13T10:17:10;24.70;99.90
11142;DHT22;5625;50.122;19.864;2023-10-13T10:19:48;24.50;99.90
11142;DHT22;5625;50.122;19.864;2023-10-13T10:22:27;24.40;99.90
11142;DHT22;5625;50.122;19.864;2023-10-13T10:25:02;24.20;1.00
11142;DHT22;5625;50.122;19.864;2023-10-13T10:27:55;24.00;1.00
11142;DHT22;5625;50.122;19.864;2023-10-13T10:30:27;23.90;94.80
11142;DHT22;5625;50.122;19.864;2023-10-13T10:32:55;23.70;99.90
11142;DHT22;5625;50.122;19.864;2023-10-13T10:35:27;23.60;1.00
11142;DHT22;5625;50.122;19.864;2023-10-13T10:37:56;23.40;1.00
11142;DHT22;5625;50.122;19.864;2023-10-13T10:40:50;23.30;1.00
11142;DHT22;5625;50.122;19.864;2023-10-13T10:43:19;23.10;99.90
11142;DHT22;5625;50.122;19.864;2023-10-13T10:45:59;22.90;99.90
11142;DHT22;5625;50.122;19.864;2023-10-13T10:48:27;22.80;1.00
11142;DHT22;5625;50.122;19.864;2023-10-13T10:51:01;22.70;7.10
11142;DHT22;5625;50.122;19.864;2023-10-13T10:53:42;22.60;99.90
11142;DHT22;5625;50.122;19.864;2023-10-13T10:56:17;22.60;99.90
11142;DHT22;5625;50.122;19.864;2023-10-13T10:58:53;22.50;99.90
11142;DHT22;5625;50.122;19.864;2023-10-13T11:01:23;22.50;99.90
11142;DHT22;5625;50.122;19.864;2023-10-13T11:03:56;22.50;1.00
11142;DHT22;5625;50.122;19.864;2023-10-13T11:06:25;22.40;99.90
11142;DHT22;5625;50.122;19.864;2023-10-13T11:09:03;22.40;42.20
11142;DHT22;5625;50.122;19.864;2023-10-13T11:11:47;22.40;99.90
11142;DHT22;5625;50.122;19.864;2023-10-13T11:14:23;22.30;1.00
11142;DHT22;5625;50.122;19.864;2023-10-13T11:16:52;22.30;99.90
11142;DHT22;5625;50.122;19.864;2023-10-13T11:19:22;22.30;99.90
11142;DHT22;5625;50.122;19.864;2023-10-13T11:22:10;22.30;99.90
11142;DHT22;5625;50.122;19.864;2023-10-13T11:24:41;22.30;99.90
11142;DHT22;5625;50.122;19.864;2023-10-13T11:27:15;22.20;99.90
11142;DHT22;5625;50.122;19.864;2023-10-13T11:29:48;22.30;99.90
11142;DHT22;5625;50.122;19.864;2023-10-13T11:32:20;22.30;99.90
11142;DHT22;5625;50.122;19.864;2023-10-13T11:34:49;22.30;93.50
11142;DHT22;5625;50.122;19.864;2023-10-13T11:37:21;22.20;1.00
11142;DHT22;5625;50.122;19.864;2023-10-13T11:40:06;22.20;49.50
11142;DHT22;5625;50.122;19.864;2023-10-13T11:42:47;22.20;1.00
11142;DHT22;5625;50.122;19.864;2023-10-13T11:45:15;22.20;99.90
11142;DHT22;5625;50.122;19.864;2023-10-13T11:47:58;22.20;1.00
11142;DHT22;5625;50.122;19.864;2023-10-13T11:50:27;22.20;99.90
11142;DHT22;5625;50.122;19.864;2023-10-13T11:53:01;22.20;1.00
11142;DHT22;5625;50.122;19.864;2023-10-13T11:55:35;22.20;99.90
11142;DHT22;5625;50.122;19.864;2023-10-13T11:58:04;22.20;99.90
11142;DHT22;5625;50.122;19.864;2023-10-13T12:00:34;22.20;99.90
11142;DHT22;5625;50.122;19.864;2023-10-13T12:03:16;22.20;1.00
11142;DHT22;5625;50.122;19.864;2023-10-13T12:06:01;22.30;1.00
11142;DHT22;5625;50.122;19.864;2023-10-13T12:08:46;22.30;99.90
11142;DHT22;5625;50.122;19.864;2023-10-13T12:11:19;22.30;99.90
11142;DHT22;5625;50.122;19.864;2023-10-13T12:14:01;22.30;99.90
11142;DHT22;5625;50.122;19.864;2023-10-13T12:16:38;22.40;99.90
11142;DHT22;5625;50.122;19.864;2023-10-13T12:19:07;22.40;99.90
11142;DHT22;5625;50.122;19.864;2023-10-13T12:21:38;22.40;99.90
11142;DHT22;5625;50.122;19.864;2023-10-13T12:24:07;22.50;99.90
11142;DHT22;5625;50.122;19.864;2023-10-13T12:26:39;22.60;1.00
11142;DHT22;5625;50.122;19.864;2023-10-13T12:29:11;22.70;99.90
11142;DHT22;5625;50.122;19.864;2023-10-13T12:31:49;22.80;99.90
11142;DHT22;5625;50.122;19.864;2023-10-13T12:34:28;22.80;87.00
11142;DHT22;5625;50.122;19.864;2023-10-13T12:37:19;22.80;99.90
11142;DHT22;5625;50.122;19.864;2023-10-13T12:40:06;22.70;16.80
11142;DHT22;5625;50.122;19.864;2023-10-13T12:42:53;22.70;99.90
11142;DHT22;5625;50.122;19.864;2023-10-13T12:45:40;22.70;99.90
11142;DHT22;5625;50.122;19.864;2023-10-13T12:48:26;22.70;1.00
11142;DHT22;5625;50.122;19.864;2023-10-13T12:51:12;22.70;39.00
11142;DHT22;5625;50.122;19.864;2023-10-13T12:53:48;22.70;99.90
11142;DHT22;5625;50.122;19.864;2023-10-13T12:56:17;22.70;1.00
11142;DHT22;5625;50.122;19.864;2023-10-13T12:58:52;22.70;99.90
11142;DHT22;5625;50.122;19.864;2023-10-13T13:01:23;22.70;80.80
11142;DHT22;5625;50.122;19.864;2023-10-13T13:03:53;22.60;1.00
11142;DHT22;5625;50.122;19.864;2023-10-13T13:06:23;22.60;54.90
11142;DHT22;5625;50.122;19.864;2023-10-13T13:08:52;22.60;99.90
11142;DHT22;5625;50.122;19.864;2023-10-13T13:11:21;22.60;99.90
11142;DHT22;5625;50.122;19.864;2023-10-13T13:13:53;22.50;99.90
11142;DHT22;5625;50.122;19.864;2023-10-13T13:16:25;22.50;1.00
11142;DHT22;5625;50.122;19.864;2023-10-13T13:18:57;22.40;1.00
11142;DHT22;5625;50.122;19.864;2023-10-13T13:21:27;22.40;99.90
11142;DHT22;5625;50.122;19.864;2023-10-13T13:23:55;22.40;99.90
11142;DHT22;5625;50.122;19.864;2023-10-13T13:26:24;22.40;99.90
11142;DHT22;5625;50.122;19.864;2023-10-13T13:28:52;22.30;94.50
11142;DHT22;5625;50.122;19.864;2023-10-13T13:31:23;22.30;99.90
11142;DHT22;5625;50.122;19.864;2023-10-13T13:33:53;22.30;22.90
11142;DHT22;5625;50.122;19.864;2023-10-13T13:36:21;22.30;1.00
11142;DHT22;5625;50.122;19.864;2023-10-13T13:38:50;22.20;1.00
11142;DHT22;5625;50.122;19.864;2023-10-13T13:41:21;22.20;1.00
11142;DHT22;5625;50.122;19.864;2023-10-13T13:43:51;22.10;8.80
11142;DHT22;5625;50.122;19.864;2023-10-13T13:46:24;22.10;99.90
11142;DHT22;5625;50.122;19.864;2023-10-13T13:48:54;22.10;1.00
11142;DHT22;5625;50.122;19.864;2023-10-13T13:51:27;22.10;99.90
11142;DHT22;5625;50.122;19.864;2023-10-13T13:53:56;22.10;1.00
11142;DHT22;5625;50.122;19.864;2023-10-13T13:56:25;22.00;1.00
11142;DHT22;5625;50.122;19.864;2023-10-13T13:58:55;21.90;1.00
11142;DHT22;5625;50.122;19.864;2023-10-13T14:01:25;21.90;99.90
11142;DHT22;5625;50.122;19.864;2023-10-13T14:03:53;21.90;99.90
11142;DHT22;5625;50.122;19.864;2023-10-13T14:06:24;21.90;1.00
11142;DHT22;5625;50.122;19.864;2023-10-13T14:08:55;22.00;99.90
11142;DHT22;5625;50.122;19.864;2023-10-13T14:11:27;22.00;99.90
11142;DHT22;5625;50.122;19.864;2023-10-13T14:14:14;22.00;99.90
11142;DHT22;5625;50.122;19.864;2023-10-13T14:16:57;22.00;99.90
11142;DHT22;5625;50.122;19.864;2023-10-13T14:19:34;21.90;99.90
11142;DHT22;5625;50.122;19.864;2023-10-13T14:22:07;21.90;99.90
11142;DHT22;5625;50.122;19.864;2023-10-13T14:24:39;21.80;99.90
11142;DHT22;5625;50.122;19.864;2023-10-13T14:27:14;21.80;99.90
11142;DHT22;5625;50.122;19.864;2023-10-13T14:29:45;21.80;1.00
11142;DHT22;5625;50.122;19.864;2023-10-13T14:32:15;21.80;1.00
11142;DHT22;5625;50.122;19.864;2023-10-13T14:34:44;21.80;1.00
11142;DHT22;5625;50.122;19.864;2023-10-13T14:37:15;21.90;1.00
11142;DHT22;5625;50.122;19.864;2023-10-13T14:39:53;21.90;1.00
11142;DHT22;5625;50.122;19.864;2023-10-13T14:42:24;22.00;1.00
11142;DHT22;5625;50.122;19.864;2023-10-13T14:44:53;22.00;1.00
11142;DHT22;5625;50.122;19.864;2023-10-13T14:47:25;22.00;1.00
11142;DHT22;5625;50.122;19.864;2023-10-13T14:49:54;22.00;1.00
11142;DHT22;5625;50.122;19.864;2023-10-13T14:52:22;22.00;1.00
11142;DHT22;5625;50.122;19.864;2023-10-13T14:54:51;22.00;1.00
11142;DHT22;5625;50.122;19.864;2023-10-13T14:57:23;21.90;7.20
11142;DHT22;5625;50.122;19.864;2023-10-13T14:59:53;21.90;1.00
11142;DHT22;5625;50.122;19.864;2023-10-13T15:02:21;21.90;1.00
11142;DHT22;5625;50.122;19.864;2023-10-13T15:04:53;21.90;99.90
11142;DHT22;5625;50.122;19.864;2023-10-13T15:07:21;21.80;99.90
11142;DHT22;5625;50.122;19.864;2023-10-13T15:09:54;21.80;81.10
11142;DHT22;5625;50.122;19.864;2023-10-13T15:12:23;21.70;99.90
11142;DHT22;5625;50.122;19.864;2023-10-13T15:14:55;21.70;99.90
11142;DHT22;5625;50.122;19.864;2023-10-13T15:17:25;21.60;99.90
11142;DHT22;5625;50.122;19.864;2023-10-13T15:19:56;21.60;99.90
11142;DHT22;5625;50.122;19.864;2023-10-13T15:22:27;21.60;99.90
11142;DHT22;5625;50.122;19.864;2023-10-13T15:24:55;21.50;99.90
11142;DHT22;5625;50.122;19.864;2023-10-13T15:27:36;21.50;99.90
11142;DHT22;5625;50.122;19.864;2023-10-13T15:30:09;21.40;99.90
11142;DHT22;5625;50.122;19.864;2023-10-13T15:32:47;21.30;99.90
11142;DHT22;5625;50.122;19.864;2023-10-13T15:35:17;21.30;99.90
11142;DHT22;5625;50.122;19.864;2023-10-13T15:37:46;21.20;99.90
11142;DHT22;5625;50.122;19.864;2023-10-13T15:40:15;21.20;99.90
11142;DHT22;5625;50.122;19.864;2023-10-13T15:42:43;21.10;99.90
11142;DHT22;5625;50.122;19.864;2023-10-13T15:45:13;21.10;99.90
11142;DHT22;5625;50.122;19.864;2023-10-13T15:47:48;21.00;99.90
11142;DHT22;5625;50.122;19.864;2023-10-13T15:50:21;20.90;99.90
11142;DHT22;5625;50.122;19.864;2023-10-13T15:52:52;20.80;99.90
11142;DHT22;5625;50.122;19.864;2023-10-13T15:55:20;20.80;99.90
11142;DHT22;5625;50.122;19.864;2023-10-13T15:57:49;20.70;99.90
11142;DHT22;5625;50.122;19.864;2023-10-13T16:00:20;20.70;99.90
11142;DHT22;5625;50.122;19.864;2023-10-13T16:02:53;20.60;99.90
11142;DHT22;5625;50.122;19.864;2023-10-13T16:05:28;20.60;99.90
11142;DHT22;5625;50.122;19.864;2023-10-13T16:08:01;20.60;99.90
11142;DHT22;5625;50.122;19.864;2023-10-13T16:10:30;20.50;1.00
11142;DHT22;5625;50.122;19.864;2023-10-13T16:12:58;20.40;1.00
11142;DHT22;5625;50.122;19.864;2023-10-13T16:15:26;20.40;1.00
11142;DHT22;5625;50.122;19.864;2023-10-13T16:17:54;20.30;1.00
11142;DHT22;5625;50.122;19.864;2023-10-13T16:20:24;20.20;1.00
11142;DHT22;5625;50.122;19.864;2023-10-13T16:22:54;20.20;1.00
11142;DHT22;5625;50.122;19.864;2023-10-13T16:25:24;20.10;1.00
11142;DHT22;5625;50.122;19.864;2023-10-13T16:27:53;20.00;1.00